Latest Weather Observations for Banana Bank

IDQ60901

Issued at 2:41 pm EST Monday 30 March 2020 (issued every 10 minutes, with the page automatically refreshed every 10 minutes)

About weather observations | Map of Brisbane area stations | Latest observations for Brisbane area | Other Formats
Station Details ID: 040925 Name: BANANA BANK NORTH BEACON Lat: -27.53 Lon: 153.33 Height: 7.0 m
Data from the previous 72 hours. | See also: Recent months at Banana Bank
Date/Time
EST
Temp
°C
App
Temp
°C
Dew
Point
°C
Rel
Hum
%
Delta-T
°C
Wind Press
QNH
hPa
Press
MSL
hPa
Rain since
9am
mm
Dir  Spd
km/h
Gust
km/h
Spd
kts
Gust
kts
30/02:30pm - - - - - N 15 17 8 9 - - -
30/02:00pm - - - - - N 15 17 8 9 - - -
30/01:30pm - - - - - N 13 15 7 8 - - -
30/01:00pm - - - - - N 13 15 7 8 - - -
30/12:30pm - - - - - N 11 13 6 7 - - -
30/12:00pm - - - - - N 11 13 6 7 - - -
30/11:30am - - - - - N 7 9 4 5 - - -
30/11:00am - - - - - N 4 6 2 3 - - -
30/10:30am - - - - - CALM 0 0 0 0 - - -
30/10:00am - - - - - CALM 0 2 0 1 - - -
30/09:30am - - - - - ESE 4 6 2 3 - - -
30/09:00am - - - - - SE 6 7 3 4 - - -
30/08:30am - - - - - SSE 4 7 2 4 - - -
30/08:00am - - - - - SSW 7 9 4 5 - - -
30/07:30am - - - - - SSW 7 9 4 5 - - -
30/07:00am - - - - - SSW 6 7 3 4 - - -
30/06:30am - - - - - SSW 7 9 4 5 - - -
30/06:00am - - - - - S 6 7 3 4 - - -
30/05:30am - - - - - S 9 9 5 5 - - -
30/05:00am - - - - - S 9 9 5 5 - - -
30/04:30am - - - - - S 9 11 5 6 - - -
30/04:00am - - - - - SSE 9 13 5 7 - - -
30/03:30am - - - - - S 9 13 5 7 - - -
30/03:00am - - - - - S 11 13 6 7 - - -
30/02:30am - - - - - S 11 13 6 7 - - -
30/02:00am - - - - - S 11 15 6 8 - - -
30/01:30am - - - - - SSW 13 15 7 8 - - -
30/01:00am - - - - - SSW 11 13 6 7 - - -
30/12:30am - - - - - SSW 11 13 6 7 - - -
30/12:00am - - - - - SSW 7 9 4 5 - - -
 
Date/Time
EST
Temp
°C
App
Temp
°C
Dew
Point
°C
Rel
Hum
%
Delta-T
°C
Wind Press
QNH
hPa
Press
MSL
hPa
Rain since
9am
mm
Dir  Spd
km/h
Gust
km/h
Spd
kts
Gust
kts
29/11:30pm - - - - - SSW 11 13 6 7 - - -
29/11:00pm - - - - - SSW 11 13 6 7 - - -
29/10:30pm - - - - - SE 6 7 3 4 - - -
29/10:00pm - - - - - SE 6 7 3 4 - - -
29/09:30pm - - - - - SSE 6 7 3 4 - - -
29/09:00pm - - - - - ESE 6 7 3 4 - - -
29/08:30pm - - - - - ESE 4 6 2 3 - - -
29/08:00pm - - - - - E 4 6 2 3 - - -
29/07:30pm - - - - - E 7 9 4 5 - - -
29/07:00pm - - - - - E 7 9 4 5 - - -
29/06:30pm - - - - - E 11 13 6 7 - - -
29/06:00pm - - - - - ESE 13 15 7 8 - - -
29/05:30pm - - - - - ESE 13 17 7 9 - - -
29/05:00pm - - - - - ESE 19 22 10 12 - - -
29/04:30pm - - - - - E 15 19 8 10 - - -
29/04:00pm - - - - - E 15 17 8 9 - - -
29/03:30pm - - - - - ESE 19 20 10 11 - - -
29/03:00pm - - - - - ESE 19 22 10 12 - - -
29/02:30pm - - - - - ESE 17 20 9 11 - - -
29/02:00pm - - - - - ESE 15 19 8 10 - - -
29/01:30pm - - - - - ESE 15 19 8 10 - - -
29/01:00pm - - - - - ESE 17 19 9 10 - - -
29/12:30pm - - - - - ESE 15 19 8 10 - - -
29/12:00pm - - - - - SE 7 15 4 8 - - -
29/11:30am - - - - - SSE 2 6 1 3 - - -
29/11:00am - - - - - S 2 6 1 3 - - -
29/10:30am - - - - - SSE 11 13 6 7 - - -
29/10:00am - - - - - SSE 11 19 6 10 - - -
29/09:30am - - - - - ESE 6 7 3 4 - - -
29/09:00am - - - - - ENE 9 13 5 7 - - -
29/08:30am - - - - - SSE 7 11 4 6 - - -
29/08:00am - - - - - SSE 11 15 6 8 - - -
29/07:30am - - - - - S 17 19 9 10 - - -
29/07:00am - - - - - S 19 22 10 12 - - -
29/06:30am - - - - - S 20 24 11 13 - - -
29/06:00am - - - - - S 19 20 10 11 - - -
29/05:30am - - - - - S 15 17 8 9 - - -
29/05:00am - - - - - SSE 15 19 8 10 - - -
29/04:30am - - - - - S 19 20 10 11 - - -
29/04:00am - - - - - S 20 24 11 13 - - -
29/03:30am - - - - - SSW 17 20 9 11 - - -
29/03:00am - - - - - S 17 20 9 11 - - -
29/02:30am - - - - - SSW 15 17 8 9 - - -
29/02:00am - - - - - SSW 17 19 9 10 - - -
29/01:30am - - - - - SW 15 19 8 10 - - -
29/01:00am - - - - - SSE 11 13 6 7 - - -
29/12:30am - - - - - SE 9 11 5 6 - - -
29/12:00am - - - - - ESE 7 11 4 6 - - -
 
Date/Time
EST
Temp
°C
App
Temp
°C
Dew
Point
°C
Rel
Hum
%
Delta-T
°C
Wind Press
QNH
hPa
Press
MSL
hPa
Rain since
9am
mm
Dir  Spd
km/h
Gust
km/h
Spd
kts
Gust
kts
28/11:30pm - - - - - E 13 17 7 9 - - -
28/11:00pm - - - - - ESE 9 15 5 8 - - -
28/10:30pm - - - - - ESE 11 15 6 8 - - -
28/10:00pm - - - - - ESE 19 20 10 11 - - -
28/09:30pm - - - - - SE 17 33 9 18 - - -
28/09:00pm - - - - - ESE 7 9 4 5 - - -
28/08:30pm - - - - - ESE 6 9 3 5 - - -
28/08:00pm - - - - - ESE 7 9 4 5 - - -
28/07:30pm - - - - - E 9 13 5 7 - - -
28/07:00pm - - - - - E 6 7 3 4 - - -
28/06:30pm - - - - - ESE 9 13 5 7 - - -
28/06:00pm - - - - - ESE 13 15 7 8 - - -
28/05:30pm - - - - - ESE 13 17 7 9 - - -
28/05:00pm - - - - - ESE 17 20 9 11 - - -
28/04:30pm - - - - - ESE 15 19 8 10 - - -
28/04:00pm - - - - - ESE 19 24 10 13 - - -
28/03:30pm - - - - - ESE 20 26 11 14 - - -
28/03:00pm - - - - - SE 20 24 11 13 - - -
28/02:30pm - - - - - SE 19 24 10 13 - - -
28/02:00pm - - - - - SE 24 28 13 15 - - -
28/01:30pm - - - - - SE 22 26 12 14 - - -
28/01:00pm - - - - - SE 22 26 12 14 - - -
28/12:30pm - - - - - SE 22 26 12 14 - - -
28/12:00pm - - - - - SSE 22 26 12 14 - - -
28/11:30am - - - - - SE 24 28 13 15 - - -
28/11:00am - - - - - SSE 26 30 14 16 - - -
28/10:30am - - - - - SSE 26 32 14 17 - - -
28/10:00am - - - - - SSE 22 26 12 14 - - -
28/09:30am - - - - - SSE 20 24 11 13 - - -
28/09:00am - - - - - S 17 20 9 11 - - -
28/08:30am - - - - - S 19 20 10 11 - - -
28/08:00am - - - - - SSW 19 24 10 13 - - -
28/07:30am - - - - - SSW 15 17 8 9 - - -
28/07:00am - - - - - SW 15 17 8 9 - - -
28/06:30am - - - - - SSW 15 17 8 9 - - -
28/06:00am - - - - - SW 13 17 7 9 - - -
28/05:30am - - - - - WSW 11 15 6 8 - - -
28/05:00am - - - - - SW 11 15 6 8 - - -
28/04:30am - - - - - SSW 17 20 9 11 - - -
28/04:00am - - - - - S 22 26 12 14 - - -
28/03:30am - - - - - S 26 32 14 17 - - -
28/03:00am - - - - - S 26 32 14 17 - - -
28/02:30am - - - - - SSE 30 39 16 21 - - -
28/02:00am - - - - - SSE 32 37 17 20 - - -
28/01:30am - - - - - SSE 30 35 16 19 - - -
28/01:00am - - - - - SSE 30 37 16 20 - - -
28/12:30am - - - - - SSE 30 35 16 19 - - -
28/12:00am - - - - - S 33 41 18 22 - - -
 
Date/Time
EST
Temp
°C
App
Temp
°C
Dew
Point
°C
Rel
Hum
%
Delta-T
°C
Wind Press
QNH
hPa
Press
MSL
hPa
Rain since
9am
mm
Dir  Spd
km/h
Gust
km/h
Spd
kts
Gust
kts
27/11:30pm - - - - - S 33 41 18 22 - - -
27/11:00pm - - - - - S 28 33 15 18 - - -
27/10:30pm - - - - - S 26 32 14 17 - - -
27/10:00pm - - - - - S 28 37 15 20 - - -
27/09:30pm - - - - - S 26 33 14 18 - - -
27/09:00pm - - - - - S 26 32 14 17 - - -
27/08:30pm - - - - - S 24 30 13 16 - - -
27/08:00pm - - - - - S 28 39 15 21 - - -
27/07:30pm - - - - - SSE 28 35 15 19 - - -
27/07:00pm - - - - - SSE 28 33 15 18 - - -
27/06:30pm - - - - - SSE 32 39 17 21 - - -
27/06:00pm - - - - - SSE 33 39 18 21 - - -
27/05:30pm - - - - - S 39 46 21 25 - - -
27/05:00pm - - - - - S 33 43 18 23 - - -
27/04:30pm - - - - - SSE 32 39 17 21 - - -
27/04:00pm - - - - - S 30 35 16 19 - - -
27/03:30pm - - - - - S 33 43 18 23 - - -
27/03:00pm - - - - - S 33 41 18 22 - - -

Latest Capital City Observations: Canberra | Sydney | Melbourne | Brisbane | Adelaide | Perth | Hobart | Darwin

Other formats

Comma delimited format used in spreadsheet applications
http://www.bom.gov.au/fwo/IDQ60901/IDQ60901.94591.axf

JavaScript Object Notation format (JSON) in row-major order
http://www.bom.gov.au/fwo/IDQ60901/IDQ60901.94591.json

Data quality

Most of these data are generated automatically and are frequently updated. Quality checks on data are not normally performed. It is possible for incorrect values to appear. Refer to information at About Latest Weather Observations and please check the disclaimer before using these data.